createdAt,value
2022-08-25T00:01:19.005Z,15.06
2022-08-25T00:04:29.530Z,14.96
2022-08-25T00:07:38.101Z,14.96
2022-08-25T00:11:03.264Z,14.95
2022-08-25T00:14:17.056Z,14.90
2022-08-25T00:17:27.596Z,14.88
2022-08-25T00:20:35.986Z,14.99
2022-08-25T00:23:48.905Z,15.28
2022-08-25T00:27:01.728Z,15.13
2022-08-25T00:30:14.631Z,15.04
2022-08-25T00:33:27.632Z,14.75
2022-08-25T00:36:36.988Z,14.54
2022-08-25T00:39:45.212Z,14.45
2022-08-25T00:42:56.018Z,14.50
2022-08-25T00:46:04.305Z,14.50
2022-08-25T00:49:24.843Z,14.42
2022-08-25T00:52:39.618Z,14.41
2022-08-25T00:55:48.986Z,14.48
2022-08-25T00:58:58.262Z,14.52
2022-08-25T01:02:10.249Z,14.48
2022-08-25T01:05:24.053Z,14.48
2022-08-25T01:08:34.303Z,14.41
2022-08-25T01:11:45.486Z,14.70
2022-08-25T01:14:56.091Z,14.53
2022-08-25T01:18:05.032Z,14.12
2022-08-25T01:21:16.516Z,13.90
2022-08-25T01:24:38.619Z,13.69
2022-08-25T01:27:46.853Z,13.59
2022-08-25T01:30:55.175Z,13.51
2022-08-25T01:34:06.157Z,13.61
2022-08-25T01:37:19.208Z,13.66
2022-08-25T01:40:27.747Z,13.70
2022-08-25T01:43:39.888Z,13.69
2022-08-25T01:46:48.209Z,13.81
2022-08-25T01:49:56.441Z,13.83
2022-08-25T01:53:15.405Z,13.94
2022-08-25T01:56:23.600Z,13.87
2022-08-25T01:59:31.789Z,13.88
2022-08-25T02:02:42.906Z,14.05
2022-08-25T02:05:53.413Z,13.97
2022-08-25T02:09:08.853Z,13.82
2022-08-25T02:12:17.216Z,13.74
2022-08-25T02:15:25.707Z,13.55
2022-08-25T02:18:34.012Z,13.44
2022-08-25T02:21:42.934Z,13.49
2022-08-25T02:24:52.768Z,13.44
2022-08-25T02:28:01.889Z,13.42
2022-08-25T02:31:10.289Z,13.42
2022-08-25T02:34:18.544Z,13.48
2022-08-25T02:37:26.744Z,13.48
2022-08-25T02:40:36.397Z,13.45
2022-08-25T02:43:45.962Z,13.42
2022-08-25T02:46:54.306Z,13.48
2022-08-25T02:50:02.491Z,13.59
2022-08-25T02:53:10.629Z,13.52
2022-08-25T02:56:21.404Z,13.35
2022-08-25T02:59:29.908Z,13.30
2022-08-25T03:02:38.101Z,13.27
2022-08-25T03:05:46.405Z,13.34
2022-08-25T03:08:55.382Z,13.32
2022-08-25T03:12:05.970Z,13.32
2022-08-25T03:15:17.160Z,13.23
2022-08-25T03:18:25.321Z,13.22
2022-08-25T03:21:33.999Z,13.22
2022-08-25T03:24:42.162Z,13.23
2022-08-25T03:27:51.636Z,13.31
2022-08-25T03:31:00.544Z,12.98
2022-08-25T03:34:09.223Z,12.72
2022-08-25T03:37:17.361Z,12.54
2022-08-25T03:44:03.974Z,12.59
2022-08-25T03:47:14.934Z,12.68
2022-08-25T03:50:24.627Z,12.57
2022-08-25T03:53:32.768Z,12.55
2022-08-25T03:56:41.573Z,12.51
2022-08-25T03:59:51.764Z,12.51
2022-08-25T04:02:59.938Z,12.55
2022-08-25T04:06:09.381Z,12.50
2022-08-25T04:09:17.496Z,12.47
2022-08-25T04:12:26.572Z,12.47
2022-08-25T04:15:36.852Z,12.62
2022-08-25T04:18:45.813Z,12.79
2022-08-25T04:21:56.727Z,12.56
2022-08-25T04:25:08.115Z,12.47
2022-08-25T04:28:16.268Z,12.47
2022-08-25T04:31:26.057Z,12.52
2022-08-25T04:34:34.296Z,12.57
2022-08-25T04:37:42.661Z,12.62
2022-08-25T04:40:58.547Z,12.60
2022-08-25T04:44:07.193Z,12.73
2022-08-25T04:47:16.888Z,12.78
2022-08-25T04:50:25.529Z,12.92
2022-08-25T04:53:34.483Z,13.02
2022-08-25T04:56:43.983Z,13.01
2022-08-25T04:59:52.264Z,13.06
2022-08-25T05:03:01.774Z,13.12
2022-08-25T05:06:15.267Z,13.21
2022-08-25T05:09:25.257Z,13.30
2022-08-25T05:12:34.261Z,13.33
2022-08-25T05:15:52.913Z,13.44
2022-08-25T05:19:02.372Z,13.54
2022-08-25T05:22:10.549Z,13.61
2022-08-25T05:25:19.087Z,13.72
2022-08-25T05:28:27.241Z,13.85
2022-08-25T05:31:41.379Z,14.03
2022-08-25T05:34:52.888Z,14.18
2022-08-25T05:38:01.061Z,14.30
2022-08-25T05:41:12.988Z,14.47
2022-08-25T05:44:21.670Z,14.57
2022-08-25T05:47:30.307Z,14.69
2022-08-25T05:50:39.944Z,14.80
2022-08-25T05:53:52.076Z,15.03
2022-08-25T05:57:01.132Z,15.25
2022-08-25T06:00:11.398Z,15.37
2022-08-25T06:03:22.444Z,15.58
2022-08-25T06:06:33.439Z,15.71
2022-08-25T06:09:45.997Z,16.12
2022-08-25T06:12:54.761Z,16.96
2022-08-25T06:16:05.435Z,17.90
2022-08-25T06:19:13.946Z,19.06
2022-08-25T06:22:25.610Z,20.96
2022-08-25T06:25:33.865Z,22.84
2022-08-25T06:28:42.432Z,24.30
2022-08-25T06:31:50.981Z,24.99
2022-08-25T06:34:59.742Z,24.04
2022-08-25T06:38:10.173Z,24.51
2022-08-25T06:41:18.497Z,24.98
2022-08-25T06:44:27.523Z,25.41
2022-08-25T06:47:35.765Z,25.70
2022-08-25T06:50:46.121Z,26.30
2022-08-25T06:53:55.710Z,27.00
2022-08-25T06:57:05.999Z,23.28
2022-08-25T07:00:14.946Z,23.77
2022-08-25T07:06:37.841Z,23.47
2022-08-25T07:09:47.568Z,25.34
2022-08-25T07:12:57.013Z,23.87
2022-08-25T07:16:06.684Z,24.98
2022-08-25T07:19:16.358Z,26.32
2022-08-25T07:22:25.788Z,25.87
2022-08-25T07:25:36.372Z,25.50
2022-08-25T07:28:47.470Z,24.22
2022-08-25T07:31:56.444Z,25.32
2022-08-25T07:35:18.932Z,26.10
2022-08-25T07:38:27.516Z,25.91
2022-08-25T07:41:41.975Z,26.37
2022-08-25T07:44:51.029Z,26.20
2022-08-25T07:48:00.873Z,26.69
2022-08-25T07:51:11.172Z,27.35
2022-08-25T07:54:19.536Z,27.41
2022-08-25T07:57:29.652Z,28.02
2022-08-25T08:00:39.588Z,26.70
2022-08-25T08:03:51.815Z,25.67
2022-08-25T08:06:59.942Z,26.85
2022-08-25T08:10:42.172Z,27.27
2022-08-25T08:13:42.195Z,26.53
2022-08-25T08:16:50.555Z,26.45
2022-08-25T08:19:58.766Z,27.39
2022-08-25T08:23:07.373Z,27.23
2022-08-25T08:26:15.780Z,25.81
2022-08-25T08:29:25.715Z,24.39
2022-08-25T08:33:05.911Z,24.91
2022-08-25T08:36:07.359Z,26.23
2022-08-25T08:39:15.594Z,27.04
2022-08-25T08:42:47.002Z,25.40
2022-08-25T08:45:57.045Z,24.56
2022-08-25T08:49:23.013Z,24.67
2022-08-25T08:52:46.021Z,24.93
2022-08-25T08:56:02.390Z,24.90
2022-08-25T08:59:19.314Z,24.68
2022-08-25T09:02:51.685Z,24.96
2022-08-25T09:06:06.893Z,24.97
2022-08-25T09:09:26.018Z,24.88
2022-08-25T09:12:48.143Z,25.45
2022-08-25T09:16:31.923Z,26.02
2022-08-25T09:20:18.642Z,26.29
2022-08-25T09:23:47.534Z,26.08
2022-08-25T09:27:11.959Z,26.28
2022-08-25T09:30:25.055Z,26.13
2022-08-25T09:33:36.059Z,26.35
2022-08-25T09:36:48.466Z,26.37
2022-08-25T09:39:57.758Z,25.98
2022-08-25T09:43:22.026Z,25.39
2022-08-25T09:46:31.500Z,25.02
2022-08-25T09:49:43.995Z,25.18
2022-08-25T09:52:53.933Z,25.35
2022-08-25T09:56:07.609Z,25.74
2022-08-25T09:59:35.260Z,25.19
2022-08-25T10:02:46.957Z,25.24
2022-08-25T10:06:07.978Z,25.51
2022-08-25T10:09:34.825Z,25.11
2022-08-25T10:12:51.083Z,25.04
2022-08-25T10:16:20.324Z,25.04
2022-08-25T10:19:32.450Z,25.17
2022-08-25T10:22:43.192Z,25.35
2022-08-25T10:25:57.905Z,25.25
2022-08-25T10:29:32.486Z,24.79
2022-08-25T10:33:09.918Z,25.11
2022-08-25T10:36:24.420Z,24.98
2022-08-25T10:39:42.123Z,25.02
2022-08-25T10:43:07.899Z,25.25
2022-08-25T10:46:31.519Z,25.40
2022-08-25T10:49:50.095Z,25.36
2022-08-25T10:53:28.212Z,25.35
2022-08-25T10:56:41.704Z,25.20
2022-08-25T11:00:05.558Z,25.16
2022-08-25T11:03:35.355Z,25.18
2022-08-25T11:06:54.780Z,25.18
2022-08-25T11:10:11.651Z,25.45
2022-08-25T11:13:30.153Z,25.87
2022-08-25T11:16:46.180Z,25.80
2022-08-25T11:20:06.279Z,25.82
2022-08-25T11:23:24.128Z,25.67
2022-08-25T11:26:40.622Z,25.72
2022-08-25T11:30:01.790Z,25.75
2022-08-25T11:33:15.025Z,26.32
2022-08-25T11:36:31.495Z,26.12
2022-08-25T11:40:11.778Z,26.22
2022-08-25T11:43:51.355Z,26.41
2022-08-25T11:47:29.789Z,26.52
2022-08-25T11:51:01.801Z,26.34
2022-08-25T11:54:38.768Z,26.23
2022-08-25T11:57:53.731Z,26.03
2022-08-25T12:01:04.841Z,26.28
2022-08-25T12:04:16.299Z,26.20
2022-08-25T12:08:13.309Z,26.64
2022-08-25T12:11:51.293Z,26.95
2022-08-25T12:15:21.066Z,27.08
2022-08-25T12:18:50.481Z,26.88
2022-08-25T12:22:39.387Z,26.32
2022-08-25T12:25:54.932Z,26.25
2022-08-25T12:29:16.693Z,26.17
2022-08-25T12:32:50.104Z,26.11
2022-08-25T12:36:02.712Z,26.26
2022-08-25T12:39:25.042Z,26.80
2022-08-25T12:42:39.723Z,27.06
2022-08-25T12:45:53.228Z,27.55
2022-08-25T12:49:06.320Z,27.60
2022-08-25T12:52:21.932Z,27.60
2022-08-25T12:55:39.433Z,27.62
2022-08-25T12:59:00.317Z,27.37
2022-08-25T13:02:58.677Z,27.31
2022-08-25T13:06:31.555Z,27.18
2022-08-25T13:10:24.310Z,27.07
2022-08-25T13:13:50.638Z,27.07
2022-08-25T13:17:01.963Z,27.08
2022-08-25T13:20:20.612Z,27.19
2022-08-25T13:23:38.163Z,27.07
2022-08-25T13:26:56.885Z,27.15
2022-08-25T13:30:08.168Z,27.24
2022-08-25T13:33:23.738Z,27.31
2022-08-25T13:37:04.439Z,27.38
2022-08-25T13:40:25.863Z,27.38
2022-08-25T13:43:36.388Z,27.35
2022-08-25T13:46:46.935Z,27.34
2022-08-25T13:49:57.676Z,27.69
2022-08-25T13:53:15.772Z,28.18
2022-08-25T13:56:39.856Z,28.58
2022-08-25T13:59:54.472Z,29.09
2022-08-25T14:03:12.675Z,29.52
2022-08-25T14:06:26.130Z,29.34
2022-08-25T14:09:46.815Z,29.67
2022-08-25T14:13:12.708Z,30.12
2022-08-25T14:16:25.732Z,29.73
2022-08-25T14:19:35.500Z,29.72
2022-08-25T14:22:46.586Z,29.24
2022-08-25T14:25:59.002Z,29.80
2022-08-25T14:29:08.180Z,28.79
2022-08-25T14:32:19.124Z,29.13
2022-08-25T14:35:27.383Z,29.74
2022-08-25T14:38:38.876Z,29.90
2022-08-25T14:41:53.162Z,29.27
2022-08-25T14:45:02.478Z,28.90
2022-08-25T14:48:16.425Z,28.49
2022-08-25T14:51:26.044Z,27.95
2022-08-25T14:54:37.614Z,27.99
2022-08-25T14:57:47.932Z,28.15
2022-08-25T15:00:58.113Z,28.01
2022-08-25T15:04:12.659Z,27.78
2022-08-25T15:07:42.474Z,27.81
2022-08-25T15:10:51.146Z,27.52
2022-08-25T15:14:01.685Z,27.60
2022-08-25T15:17:10.996Z,27.45
2022-08-25T15:20:20.105Z,27.45
2022-08-25T15:23:28.254Z,27.34
2022-08-25T15:26:45.028Z,27.14
2022-08-25T15:29:55.820Z,27.16
2022-08-25T15:33:05.069Z,27.26
2022-08-25T15:36:16.312Z,27.41
2022-08-25T15:39:29.317Z,27.57
2022-08-25T15:42:38.613Z,27.68
2022-08-25T15:45:52.474Z,27.61
2022-08-25T15:49:01.198Z,27.59
2022-08-25T15:52:10.000Z,27.38
2022-08-25T15:55:22.666Z,27.58
2022-08-25T15:58:33.456Z,27.72
2022-08-25T16:01:44.252Z,27.91
2022-08-25T16:04:54.651Z,27.79
2022-08-25T16:08:03.704Z,27.78
2022-08-25T16:11:20.038Z,27.71
2022-08-25T16:14:30.653Z,27.44
2022-08-25T16:17:43.177Z,27.36
2022-08-25T16:20:53.575Z,27.40
2022-08-25T16:24:07.601Z,27.40
2022-08-25T16:27:19.062Z,27.22
2022-08-25T16:30:27.381Z,27.21
2022-08-25T16:33:38.110Z,27.04
2022-08-25T16:36:46.847Z,27.03
2022-08-25T16:39:56.419Z,26.98
2022-08-25T16:43:04.739Z,26.78
2022-08-25T16:46:17.247Z,26.67
2022-08-25T16:49:26.897Z,26.61
2022-08-25T16:52:52.988Z,26.44
2022-08-25T16:56:08.557Z,26.32
2022-08-25T16:59:19.567Z,26.19
2022-08-25T17:02:28.230Z,26.04
2022-08-25T17:05:44.507Z,25.87
2022-08-25T17:08:53.321Z,25.77
2022-08-25T17:12:01.456Z,25.74
2022-08-25T17:15:10.494Z,25.70
2022-08-25T17:18:18.884Z,25.68
2022-08-25T17:21:35.376Z,25.55
2022-08-25T17:24:50.206Z,25.45
2022-08-25T17:28:08.263Z,25.42
2022-08-25T17:31:22.119Z,25.33
2022-08-25T17:34:31.045Z,25.33
2022-08-25T17:37:41.007Z,25.12
2022-08-25T17:40:49.458Z,25.01
2022-08-25T17:43:58.695Z,24.88
2022-08-25T17:47:07.107Z,24.71
2022-08-25T17:50:16.044Z,24.56
2022-08-25T17:53:26.883Z,24.48
2022-08-25T17:56:35.219Z,24.39
2022-08-25T17:59:44.124Z,24.22
2022-08-25T18:02:52.408Z,24.01
2022-08-25T18:06:01.042Z,23.83
2022-08-25T18:09:13.293Z,23.72
2022-08-25T18:12:21.609Z,23.56
2022-08-25T18:15:36.464Z,23.66
2022-08-25T18:18:45.360Z,23.61
2022-08-25T18:21:53.555Z,23.46
2022-08-25T18:25:08.657Z,23.32
2022-08-25T18:28:18.807Z,23.26
2022-08-25T18:31:27.185Z,23.19
2022-08-25T18:34:36.402Z,23.08
2022-08-25T18:38:02.500Z,22.92
2022-08-25T18:41:13.516Z,22.73
2022-08-25T18:44:23.381Z,22.66
2022-08-25T18:47:31.775Z,22.57
2022-08-25T18:50:42.687Z,22.41
2022-08-25T18:53:58.998Z,22.33
2022-08-25T18:57:09.208Z,22.20
2022-08-25T19:00:21.410Z,22.17
2022-08-25T19:03:29.784Z,22.21
2022-08-25T19:06:38.480Z,22.10
2022-08-25T19:09:52.204Z,22.11
2022-08-25T19:13:08.289Z,22.01
2022-08-25T19:16:30.934Z,22.06
2022-08-25T19:19:39.665Z,22.01
2022-08-25T19:22:48.492Z,21.83
2022-08-25T19:25:57.044Z,21.75
2022-08-25T19:29:12.675Z,21.67
2022-08-25T19:32:21.844Z,21.59
2022-08-25T19:35:43.897Z,21.71
2022-08-25T19:38:53.794Z,21.77
2022-08-25T19:42:03.186Z,21.79
2022-08-25T19:45:14.343Z,21.67
2022-08-25T19:48:22.727Z,21.70
2022-08-25T19:51:32.638Z,21.57
2022-08-25T19:54:45.666Z,21.48
2022-08-25T19:57:54.591Z,21.42
2022-08-25T20:01:04.768Z,21.43
2022-08-25T20:04:13.599Z,21.28
2022-08-25T20:07:25.763Z,21.20
2022-08-25T20:10:42.147Z,21.14
2022-08-25T20:13:50.516Z,21.14
2022-08-25T20:17:00.663Z,21.15
2022-08-25T20:20:12.918Z,21.19
2022-08-25T20:23:38.858Z,21.16
2022-08-25T20:26:47.756Z,21.01
2022-08-25T20:29:57.262Z,20.99
2022-08-25T20:33:07.599Z,20.98
2022-08-25T20:36:17.787Z,20.93
2022-08-25T20:39:27.522Z,20.83
2022-08-25T20:42:37.174Z,20.74
2022-08-25T20:45:46.075Z,20.67
2022-08-25T20:48:55.944Z,20.68
2022-08-25T20:52:05.507Z,20.60
2022-08-25T20:55:19.138Z,20.55
2022-08-25T20:58:27.864Z,20.56
2022-08-25T21:01:39.908Z,20.44
2022-08-25T21:04:50.402Z,20.36
2022-08-25T21:07:59.076Z,20.36
2022-08-25T21:11:08.711Z,20.29
2022-08-25T21:14:17.445Z,20.25
2022-08-25T21:17:26.504Z,20.13
2022-08-25T21:20:36.219Z,20.02
2022-08-25T21:23:48.186Z,19.97
2022-08-25T21:26:59.591Z,19.93
2022-08-25T21:30:10.812Z,19.88
2022-08-25T21:33:19.352Z,19.89
2022-08-25T21:36:31.337Z,19.85
2022-08-25T21:39:39.705Z,19.91
2022-08-25T21:42:50.361Z,19.87
2022-08-25T21:45:58.976Z,19.88
2022-08-25T21:49:08.607Z,19.87
2022-08-25T21:52:18.760Z,19.89
2022-08-25T21:55:27.069Z,19.97
2022-08-25T21:58:38.368Z,19.95
2022-08-25T22:01:47.281Z,19.90
2022-08-25T22:04:57.743Z,19.80
2022-08-25T22:08:08.867Z,19.75
2022-08-25T22:11:18.481Z,19.69
2022-08-25T22:14:28.515Z,19.67
2022-08-25T22:17:37.037Z,19.62
2022-08-25T22:20:45.739Z,19.63
2022-08-25T22:23:57.594Z,19.57
2022-08-25T22:27:15.362Z,19.47
2022-08-25T22:30:24.253Z,19.53
2022-08-25T22:33:33.638Z,19.55
2022-08-25T22:36:42.040Z,19.42
2022-08-25T22:39:52.593Z,19.32
2022-08-25T22:43:00.993Z,19.25
2022-08-25T22:46:12.872Z,19.25
2022-08-25T22:49:21.878Z,19.15
2022-08-25T22:52:33.672Z,19.13
2022-08-25T22:55:45.454Z,19.05
2022-08-25T22:58:54.617Z,19.00
2022-08-25T23:02:03.160Z,18.96
2022-08-25T23:05:14.784Z,18.94
2022-08-25T23:08:39.362Z,18.92
2022-08-25T23:11:51.485Z,18.89
2022-08-25T23:15:00.046Z,18.87
2022-08-25T23:18:08.724Z,18.84
2022-08-25T23:21:38.212Z,18.85
2022-08-25T23:24:52.552Z,18.84
2022-08-25T23:28:02.480Z,18.83
2022-08-25T23:31:13.647Z,18.85
2022-08-25T23:34:24.642Z,18.83
2022-08-25T23:37:34.471Z,18.83
2022-08-25T23:40:44.611Z,18.82
2022-08-25T23:43:55.416Z,18.80
2022-08-25T23:47:03.702Z,18.75
2022-08-25T23:50:12.696Z,18.79
2022-08-25T23:53:21.559Z,18.78
2022-08-25T23:56:29.731Z,18.75
2022-08-25T23:59:39.751Z,18.75
